createdAt,value
2023-03-17T00:01:03.286Z,70.30
2023-03-17T00:06:06.105Z,70.90
2023-03-17T00:11:14.204Z,70.60
2023-03-17T00:21:31.173Z,70.10
2023-03-17T00:26:33.536Z,70.20
2023-03-17T00:31:36.318Z,70.40
2023-03-17T00:36:38.734Z,70.10
2023-03-17T00:41:41.049Z,70.50
2023-03-17T00:46:43.373Z,70.50
2023-03-17T00:51:46.311Z,71.00
2023-03-17T00:56:52.133Z,70.00
2023-03-17T01:01:55.495Z,69.90
2023-03-17T01:06:58.617Z,71.10
2023-03-17T01:12:01.591Z,70.20
2023-03-17T01:17:04.234Z,70.60
2023-03-17T01:22:06.379Z,70.50
2023-03-17T01:27:08.799Z,70.40
2023-03-17T01:32:13.045Z,69.60
2023-03-17T01:37:15.240Z,70.20
2023-03-17T01:42:17.724Z,70.00
2023-03-17T01:47:19.989Z,70.00
2023-03-17T01:52:23.142Z,69.40
2023-03-17T01:57:33.463Z,69.90
2023-03-17T02:02:38.926Z,69.20
2023-03-17T02:07:41.669Z,69.40
2023-03-17T02:12:46.035Z,68.90
2023-03-17T02:17:48.667Z,69.40
2023-03-17T02:22:54.049Z,69.00
2023-03-17T02:28:15.087Z,69.20
2023-03-17T02:33:17.326Z,69.10
2023-03-17T02:38:19.652Z,69.30
2023-03-17T02:43:22.425Z,68.80
2023-03-17T02:48:24.910Z,69.40
2023-03-17T02:53:27.234Z,69.10
2023-03-17T02:58:29.760Z,69.30
2023-03-17T03:03:33.017Z,69.10
2023-03-17T03:08:36.006Z,69.10
2023-03-17T03:13:39.096Z,68.80
2023-03-17T03:18:41.460Z,68.80
2023-03-17T03:23:43.717Z,69.20
2023-03-17T03:28:46.276Z,69.00
2023-03-17T03:33:48.549Z,68.20
2023-03-17T03:38:51.066Z,68.90
2023-03-17T03:43:53.399Z,68.50
2023-03-17T03:48:55.918Z,68.40
2023-03-17T03:53:58.192Z,68.90
2023-03-17T03:59:01.235Z,68.60
2023-03-17T04:04:04.573Z,68.80
2023-03-17T04:09:06.898Z,68.00
2023-03-17T04:14:09.348Z,67.70
2023-03-17T04:19:11.743Z,67.90
2023-03-17T04:24:15.125Z,68.00
2023-03-17T04:29:17.385Z,67.80
2023-03-17T04:34:19.943Z,68.10
2023-03-17T04:39:22.449Z,68.20
2023-03-17T04:44:24.735Z,68.30
2023-03-17T04:49:27.321Z,68.30
2023-03-17T04:54:29.624Z,68.00
2023-03-17T04:59:32.266Z,67.60
2023-03-17T05:04:35.377Z,68.00
2023-03-17T05:09:38.020Z,68.30
2023-03-17T05:14:40.570Z,68.20
2023-03-17T05:19:43.211Z,67.80
2023-03-17T05:24:45.531Z,67.60
2023-03-17T05:29:48.863Z,66.70
2023-03-17T05:34:52.081Z,66.90
2023-03-17T05:39:54.319Z,67.80
2023-03-17T05:44:56.661Z,68.00
2023-03-17T05:49:59.402Z,67.00
2023-03-17T05:55:01.794Z,67.70
2023-03-17T06:00:05.476Z,67.60
2023-03-17T06:05:08.961Z,67.40
2023-03-17T06:10:11.897Z,66.70
2023-03-17T06:15:14.189Z,66.70
2023-03-17T06:20:16.962Z,66.60
2023-03-17T06:25:19.646Z,66.60
2023-03-17T06:30:22.594Z,66.90
2023-03-17T06:35:25.360Z,65.00
2023-03-17T06:40:28.102Z,65.90
2023-03-17T06:45:32.995Z,65.30
2023-03-17T06:50:35.674Z,66.30
2023-03-17T06:55:38.062Z,67.00
2023-03-17T07:00:40.703Z,67.30
2023-03-17T07:05:43.685Z,66.80
2023-03-17T07:10:46.931Z,66.80
2023-03-17T07:15:49.987Z,65.90
2023-03-17T07:20:52.233Z,64.50
2023-03-17T07:25:54.630Z,65.30
2023-03-17T07:30:58.209Z,64.60
2023-03-17T07:36:01.722Z,64.50
2023-03-17T07:41:04.947Z,64.30
2023-03-17T07:46:07.547Z,64.10
2023-03-17T07:51:15.027Z,65.60
2023-03-17T07:56:17.938Z,63.30
2023-03-17T08:01:21.745Z,63.80
2023-03-17T08:06:25.522Z,63.60
2023-03-17T08:11:29.462Z,63.30
2023-03-17T08:16:32.393Z,62.60
2023-03-17T08:21:34.695Z,62.90
2023-03-17T08:26:37.800Z,64.00
2023-03-17T08:31:40.814Z,63.80
2023-03-17T08:36:43.304Z,61.60
2023-03-17T08:42:06.134Z,63.40
2023-03-17T08:47:08.513Z,63.30
2023-03-17T08:52:11.250Z,64.10
2023-03-17T08:57:15.609Z,60.80
2023-03-17T09:02:18.955Z,61.50
2023-03-17T09:07:21.818Z,62.40
2023-03-17T09:12:24.006Z,62.10
2023-03-17T09:17:26.451Z,62.90
2023-03-17T09:22:28.681Z,63.30
2023-03-17T09:27:31.029Z,64.60
2023-03-17T09:32:33.333Z,62.80
2023-03-17T09:37:35.647Z,62.60
2023-03-17T09:53:20.774Z,62.30
2023-03-17T09:58:30.839Z,63.40
2023-03-17T10:03:34.361Z,60.70
2023-03-17T10:08:42.305Z,61.90
2023-03-17T10:14:09.519Z,59.50
2023-03-17T10:24:34.206Z,60.70
2023-03-17T10:29:36.413Z,61.00
2023-03-17T10:34:39.962Z,60.40
2023-03-17T10:44:58.956Z,61.60
2023-03-17T10:50:25.405Z,60.30
2023-03-17T11:01:00.072Z,61.50
2023-03-17T11:11:34.839Z,60.30
2023-03-17T11:16:40.776Z,61.60
2023-03-17T11:43:34.334Z,60.70
2023-03-17T12:04:49.604Z,58.80
2023-03-17T12:10:22.762Z,60.00
2023-03-17T12:15:37.879Z,60.20
2023-03-17T12:25:59.457Z,60.10
2023-03-17T13:33:31.854Z,62.50
2023-03-17T13:48:56.625Z,59.70
2023-03-17T13:59:21.011Z,58.20
2023-03-17T14:04:28.448Z,57.10
2023-03-17T14:22:56.839Z,58.40
2023-03-17T14:28:00.307Z,56.20
2023-03-17T14:38:32.953Z,55.30
2023-03-17T14:43:36.582Z,56.10
2023-03-17T14:48:42.554Z,56.10
2023-03-17T14:53:46.661Z,55.50
2023-03-17T14:58:52.237Z,56.00
2023-03-17T15:03:57.949Z,55.40
2023-03-17T15:09:17.074Z,55.20
2023-03-17T15:14:25.944Z,55.50
2023-03-17T15:19:46.760Z,55.50
2023-03-17T15:25:00.578Z,55.90
2023-03-17T15:30:03.324Z,55.70
2023-03-17T15:35:07.705Z,55.50
2023-03-17T15:40:10.872Z,54.70
2023-03-17T15:45:16.132Z,55.50
2023-03-17T15:50:26.391Z,54.20
2023-03-17T15:55:30.735Z,55.20
2023-03-17T16:00:33.695Z,55.30
2023-03-17T16:05:36.777Z,55.20
2023-03-17T16:10:39.066Z,54.30
2023-03-17T16:15:43.942Z,55.10
2023-03-17T16:20:49.268Z,54.90
2023-03-17T16:25:53.814Z,55.20
2023-03-17T16:30:57.961Z,55.00
2023-03-17T16:36:01.242Z,54.60
2023-03-17T16:41:10.025Z,54.90
2023-03-17T16:46:13.773Z,54.70
2023-03-17T16:51:16.988Z,55.10
2023-03-17T16:56:22.045Z,54.80
2023-03-17T17:01:27.295Z,54.00
2023-03-17T17:06:29.584Z,54.70
2023-03-17T17:11:31.830Z,54.50
2023-03-17T17:16:37.252Z,54.50
2023-03-17T17:21:39.555Z,54.50
2023-03-17T17:26:42.025Z,54.70
2023-03-17T17:31:44.255Z,53.40
2023-03-17T17:36:46.650Z,54.30
2023-03-17T17:41:48.913Z,54.20
2023-03-17T17:46:51.235Z,54.60
2023-03-17T17:51:53.533Z,54.70
2023-03-17T17:56:55.788Z,53.80
2023-03-17T18:01:59.929Z,54.70
2023-03-17T18:07:02.288Z,54.10
2023-03-17T18:12:05.144Z,53.80
2023-03-17T18:17:07.773Z,54.90
2023-03-17T18:22:10.063Z,53.50
2023-03-17T18:27:13.158Z,54.30
2023-03-17T18:32:15.971Z,54.00
2023-03-17T18:37:19.287Z,54.60
2023-03-17T18:42:22.480Z,54.70
2023-03-17T18:47:24.766Z,54.40
2023-03-17T18:52:35.729Z,54.20
2023-03-17T18:57:38.046Z,54.30
2023-03-17T19:02:40.372Z,54.40
2023-03-17T19:07:42.811Z,53.00
2023-03-17T19:12:46.443Z,53.40
2023-03-17T19:17:50.400Z,53.20
2023-03-17T19:22:53.824Z,54.00
2023-03-17T19:27:56.481Z,52.90
2023-03-17T19:32:58.732Z,54.10
2023-03-17T19:38:01.297Z,54.40
2023-03-17T19:43:06.357Z,54.50
2023-03-17T19:48:11.801Z,54.30
2023-03-17T19:53:14.192Z,54.30
2023-03-17T19:58:16.459Z,54.20
2023-03-17T20:03:19.079Z,53.70
2023-03-17T20:08:22.606Z,54.10
2023-03-17T20:13:24.920Z,54.00
2023-03-17T20:18:27.818Z,54.10
2023-03-17T20:23:30.151Z,53.80
2023-03-17T20:28:32.636Z,54.00
2023-03-17T20:33:35.375Z,53.90
2023-03-17T20:38:39.035Z,53.90
2023-03-17T20:43:41.825Z,53.30
2023-03-17T20:48:46.602Z,53.20
2023-03-17T20:53:49.400Z,53.20
2023-03-17T20:58:53.366Z,52.90
2023-03-17T21:03:55.752Z,53.00
2023-03-17T21:08:58.763Z,51.90
2023-03-17T21:14:03.444Z,52.40
2023-03-17T21:19:07.995Z,52.50
2023-03-17T21:24:24.841Z,51.70
2023-03-17T21:29:29.355Z,51.60
2023-03-17T21:34:32.258Z,52.00
2023-03-17T21:39:36.308Z,50.90
2023-03-17T21:44:39.391Z,51.60
2023-03-17T21:49:41.788Z,52.30
2023-03-17T21:54:44.065Z,52.10
2023-03-17T21:59:48.156Z,51.60
2023-03-17T22:04:50.389Z,51.90
2023-03-17T22:09:53.893Z,51.50
2023-03-17T22:14:58.318Z,52.30
2023-03-17T22:20:00.546Z,52.10
2023-03-17T22:25:05.630Z,51.80
2023-03-17T22:30:08.497Z,50.50
2023-03-17T22:35:12.083Z,50.60
2023-03-17T22:40:14.860Z,50.50
2023-03-17T22:45:17.158Z,51.10
2023-03-17T22:50:19.475Z,49.50
2023-03-17T22:55:21.705Z,50.20
2023-03-17T23:00:25.784Z,49.20
2023-03-17T23:05:28.347Z,51.00
2023-03-17T23:10:33.695Z,50.80
2023-03-17T23:15:36.211Z,51.30
2023-03-17T23:20:40.888Z,51.50
2023-03-17T23:25:44.072Z,50.60
2023-03-17T23:30:47.377Z,51.30
2023-03-17T23:35:50.536Z,51.40
2023-03-17T23:40:56.964Z,51.30
2023-03-17T23:46:00.570Z,51.20
2023-03-17T23:51:03.411Z,51.10
2023-03-17T23:56:07.185Z,50.60
